createdAt,value
2023-02-18T00:00:10.122Z,2.10
2023-02-18T00:05:14.027Z,1.80
2023-02-18T00:10:18.116Z,2.15
2023-02-18T00:15:23.426Z,2.15
2023-02-18T00:20:27.123Z,2.00
2023-02-18T00:25:30.960Z,1.80
2023-02-18T00:30:36.263Z,1.50
2023-02-18T00:35:39.866Z,1.90
2023-02-18T00:40:44.009Z,1.80
2023-02-18T00:45:49.302Z,1.90
2023-02-18T00:50:52.940Z,2.75
2023-02-18T00:55:56.768Z,2.10
2023-02-18T01:01:03.375Z,2.40
2023-02-18T01:06:08.772Z,1.58
2023-02-18T01:11:13.656Z,1.27
2023-02-18T01:16:20.404Z,1.40
2023-02-18T01:21:24.122Z,1.58
2023-02-18T01:26:27.760Z,1.33
2023-02-18T01:31:33.195Z,1.30
2023-02-18T01:36:36.930Z,1.25
2023-02-18T01:41:40.604Z,1.30
2023-02-18T01:46:46.184Z,1.38
2023-02-18T01:51:53.060Z,1.50
2023-02-18T01:56:59.661Z,1.80
2023-02-18T02:02:07.247Z,1.70
2023-02-18T02:07:11.060Z,1.92
2023-02-18T02:12:44.854Z,1.52
2023-02-18T02:18:03.060Z,1.48
2023-02-18T02:23:30.333Z,2.15
2023-02-18T02:29:04.735Z,2.20
2023-02-18T02:34:40.044Z,1.83
2023-02-18T02:39:54.741Z,1.90
2023-02-18T02:45:05.462Z,2.15
2023-02-18T02:50:14.822Z,1.52
2023-02-18T02:55:18.535Z,2.38
2023-02-18T03:00:27.994Z,2.20
2023-02-18T03:05:47.094Z,2.25
2023-02-18T03:10:58.633Z,2.22
2023-02-18T03:16:12.079Z,2.40
2023-02-18T03:21:24.921Z,2.50
2023-02-18T03:26:30.691Z,2.00
2023-02-18T03:31:38.702Z,2.13
2023-02-18T03:36:44.792Z,2.20
2023-02-18T03:41:49.748Z,2.30
2023-02-18T03:46:53.774Z,2.28
2023-02-18T03:51:59.043Z,2.08
2023-02-18T03:57:02.652Z,2.20
2023-02-18T04:02:06.298Z,1.98
2023-02-18T04:07:11.586Z,2.50
2023-02-18T04:12:15.393Z,2.50
2023-02-18T04:17:19.039Z,2.30
2023-02-18T04:22:24.369Z,2.40
2023-02-18T04:27:28.771Z,2.50
2023-02-18T04:32:32.574Z,1.92
2023-02-18T04:37:37.874Z,2.08
2023-02-18T04:42:41.724Z,2.03
2023-02-18T04:47:45.385Z,2.30
2023-02-18T04:52:50.716Z,2.60
2023-02-18T04:57:54.377Z,2.30
2023-02-18T05:02:58.070Z,3.00
2023-02-18T05:08:03.419Z,3.38
2023-02-18T05:13:07.066Z,2.53
2023-02-18T05:18:11.340Z,2.53
2023-02-18T05:23:16.636Z,1.88
2023-02-18T05:28:20.315Z,1.75
2023-02-18T05:33:23.975Z,1.70
2023-02-18T05:38:29.320Z,1.90
2023-02-18T05:43:33.620Z,1.92
2023-02-18T05:48:37.284Z,1.60
2023-02-18T05:53:46.724Z,1.70
2023-02-18T05:58:50.474Z,1.63
2023-02-18T06:03:54.124Z,1.70
2023-02-18T06:08:59.555Z,1.73
2023-02-18T06:14:03.693Z,1.93
2023-02-18T06:19:07.385Z,1.70
2023-02-18T06:24:18.600Z,2.00
2023-02-18T06:29:22.770Z,1.80
2023-02-18T06:34:27.513Z,1.90
2023-02-18T06:39:32.840Z,1.88
2023-02-18T06:44:37.950Z,2.03
2023-02-18T06:49:41.748Z,2.15
2023-02-18T06:54:47.153Z,2.00
2023-02-18T06:59:50.804Z,2.20
2023-02-18T07:04:54.797Z,2.03
2023-02-18T07:10:00.116Z,1.80
2023-02-18T07:15:04.224Z,1.83
2023-02-18T07:20:09.104Z,2.20
2023-02-18T07:25:14.709Z,2.03
2023-02-18T07:30:18.745Z,1.90
2023-02-18T07:35:22.613Z,1.98
2023-02-18T07:40:27.964Z,2.15
2023-02-18T07:45:31.569Z,2.08
2023-02-18T07:50:35.242Z,2.20
2023-02-18T07:55:41.011Z,2.20
2023-02-18T08:00:45.006Z,2.30
2023-02-18T08:05:51.170Z,2.15
2023-02-18T08:10:59.677Z,1.83
2023-02-18T08:16:04.793Z,2.30
2023-02-18T08:21:08.425Z,2.10
2023-02-18T08:26:14.004Z,1.70
2023-02-18T08:31:20.216Z,2.10
2023-02-18T08:36:24.399Z,2.03
2023-02-18T08:41:29.692Z,1.83
2023-02-18T08:46:35.466Z,1.92
2023-02-18T08:51:40.805Z,1.90
2023-02-18T08:56:46.167Z,2.00
2023-02-18T09:01:49.857Z,2.00
2023-02-18T09:06:53.495Z,2.00
2023-02-18T09:11:58.872Z,1.83
2023-02-18T09:17:02.519Z,2.10
2023-02-18T09:22:06.125Z,1.98
2023-02-18T09:27:11.671Z,2.08
2023-02-18T09:32:25.459Z,2.07
2023-02-18T09:37:36.320Z,1.80
2023-02-18T09:42:41.658Z,2.28
2023-02-18T09:47:47.054Z,1.85
2023-02-18T09:52:50.863Z,1.70
2023-02-18T09:58:00.239Z,2.10
2023-02-18T10:03:08.037Z,1.80
2023-02-18T10:08:25.268Z,1.92
2023-02-18T10:13:33.277Z,1.92
2023-02-18T10:18:42.781Z,1.98
2023-02-18T10:23:54.668Z,1.98
2023-02-18T10:29:00.176Z,1.90
2023-02-18T10:34:14.454Z,1.60
2023-02-18T10:39:34.683Z,1.88
2023-02-18T10:44:49.102Z,2.20
2023-02-18T10:49:59.313Z,1.95
2023-02-18T10:55:04.352Z,1.83
2023-02-18T11:00:18.675Z,1.90
2023-02-18T11:05:28.713Z,2.20
2023-02-18T11:10:34.451Z,1.75
2023-02-18T11:15:54.121Z,2.07
2023-02-18T11:20:59.793Z,1.95
2023-02-18T11:26:06.725Z,1.80
2023-02-18T11:31:22.612Z,1.90
2023-02-18T11:36:29.760Z,1.90
2023-02-18T11:41:36.767Z,1.83
2023-02-18T11:46:58.361Z,1.90
2023-02-18T11:52:15.527Z,2.08
2023-02-18T11:57:20.989Z,1.80
2023-02-18T12:02:34.828Z,1.80
2023-02-18T12:07:45.323Z,2.00
2023-02-18T12:12:53.311Z,1.95
2023-02-18T12:18:39.586Z,1.90
2023-02-18T12:23:54.855Z,2.10
2023-02-18T12:29:18.482Z,2.30
2023-02-18T12:34:40.118Z,2.42
2023-02-18T12:40:04.258Z,2.00
2023-02-18T12:45:32.914Z,2.40
2023-02-18T12:51:01.544Z,2.45
2023-02-18T12:56:24.798Z,1.70
2023-02-18T13:01:40.257Z,2.20
2023-02-18T13:07:04.917Z,2.15
2023-02-18T13:12:16.085Z,2.00
2023-02-18T13:17:22.841Z,1.90
2023-02-18T13:22:30.990Z,2.22
2023-02-18T13:27:41.847Z,2.17
2023-02-18T13:32:53.372Z,1.90
2023-02-18T13:38:27.520Z,2.20
2023-02-18T13:43:32.867Z,2.30
2023-02-18T13:48:43.302Z,2.10
2023-02-18T13:53:53.297Z,1.90
2023-02-18T13:59:02.217Z,2.05
2023-02-18T14:04:27.294Z,2.10
2023-02-18T14:09:42.403Z,2.25
2023-02-18T14:14:46.993Z,2.20
2023-02-18T14:19:55.648Z,2.40
2023-02-18T14:25:05.221Z,2.22
2023-02-18T14:30:20.116Z,2.50
2023-02-18T14:35:33.611Z,2.30
2023-02-18T14:40:59.424Z,2.30
2023-02-18T14:46:11.282Z,2.42
2023-02-18T14:51:17.627Z,2.10
2023-02-18T14:56:24.555Z,2.15
2023-02-18T15:01:30.857Z,2.20
2023-02-18T15:06:36.587Z,2.20
2023-02-18T15:11:45.852Z,2.30
2023-02-18T15:16:50.949Z,2.40
2023-02-18T15:21:57.695Z,2.50
2023-02-18T15:27:06.276Z,2.30
2023-02-18T15:32:19.234Z,2.53
2023-02-18T15:37:22.957Z,2.40
2023-02-18T15:42:32.499Z,2.37
2023-02-18T15:47:42.404Z,2.60
2023-02-18T15:52:46.595Z,2.50
2023-02-18T15:57:52.491Z,2.40
2023-02-18T16:02:57.809Z,2.67
2023-02-18T16:08:06.081Z,2.40
2023-02-18T16:13:15.163Z,2.17
2023-02-18T16:18:31.488Z,2.20
2023-02-18T16:23:41.583Z,2.03
2023-02-18T16:28:47.300Z,2.30
2023-02-18T16:33:51.121Z,2.13
2023-02-18T16:38:54.765Z,2.35
2023-02-18T16:44:00.531Z,2.05
2023-02-18T16:49:04.330Z,2.13
2023-02-18T16:54:10.742Z,2.30
2023-02-18T17:04:20.574Z,2.30
2023-02-18T17:09:25.420Z,2.35
2023-02-18T17:14:30.816Z,2.20
2023-02-18T17:19:34.428Z,2.20
2023-02-18T17:24:38.044Z,3.20
2023-02-18T17:29:43.324Z,3.42
2023-02-18T17:34:47.003Z,4.15
2023-02-18T17:39:50.629Z,3.92
2023-02-18T17:44:55.961Z,4.35
2023-02-18T17:49:59.578Z,3.60
2023-02-18T17:55:03.228Z,3.60
2023-02-18T18:00:09.790Z,3.45
2023-02-18T18:05:22.392Z,4.07
2023-02-18T18:10:27.558Z,4.00
2023-02-18T18:15:34.324Z,4.27
2023-02-18T18:20:38.599Z,3.75
2023-02-18T18:25:43.889Z,4.00
2023-02-18T18:30:51.189Z,4.43
2023-02-18T18:35:56.799Z,4.47
2023-02-18T18:41:00.487Z,4.35
2023-02-18T18:46:07.315Z,4.40
2023-02-18T18:51:15.231Z,4.72
2023-02-18T18:56:18.904Z,4.72
2023-02-18T19:01:24.505Z,5.32
2023-02-18T19:06:28.930Z,5.50
2023-02-18T19:11:32.554Z,4.65
2023-02-18T19:16:39.884Z,5.07
2023-02-18T19:21:43.482Z,4.53
2023-02-18T19:26:47.128Z,4.35
2023-02-18T19:31:52.484Z,3.53
2023-02-18T19:36:56.120Z,3.45
2023-02-18T19:41:59.739Z,3.20
2023-02-18T19:47:05.091Z,3.85
2023-02-18T19:52:08.805Z,3.65
2023-02-18T19:57:12.954Z,3.40
2023-02-18T20:02:21.869Z,2.50
2023-02-18T20:07:25.533Z,2.20
2023-02-18T20:12:29.310Z,2.90
2023-02-18T20:17:34.724Z,3.35
2023-02-18T20:22:38.327Z,2.78
2023-02-18T20:27:58.268Z,3.25
2023-02-18T20:33:05.448Z,2.97
2023-02-18T20:38:09.094Z,3.35
2023-02-18T20:43:12.695Z,2.60
2023-02-18T20:48:19.954Z,3.03
2023-02-18T20:53:23.571Z,2.10
2023-02-18T20:58:27.538Z,2.35
2023-02-18T21:03:33.029Z,2.65
2023-02-18T21:08:40.286Z,2.63
2023-02-18T21:13:45.731Z,3.17
2023-02-18T21:18:51.456Z,3.50
2023-02-18T21:29:00.751Z,2.70
2023-02-18T21:34:07.025Z,2.40
2023-02-18T21:39:11.513Z,2.45
2023-02-18T21:44:15.183Z,2.30
2023-02-18T21:49:20.573Z,2.30
2023-02-18T21:54:25.765Z,2.28
2023-02-18T21:59:31.410Z,2.30
2023-02-18T22:04:37.885Z,2.00
2023-02-18T22:09:41.654Z,2.20
2023-02-18T22:14:45.575Z,2.05
2023-02-18T22:19:51.271Z,2.03
2023-02-18T22:29:57.839Z,1.92
2023-02-18T22:35:03.121Z,2.38
2023-02-18T22:40:07.323Z,2.42
2023-02-18T22:45:11.116Z,2.30
2023-02-18T22:50:17.310Z,2.00
2023-02-18T22:55:21.022Z,2.20
2023-02-18T23:00:26.528Z,2.20
2023-02-18T23:05:34.561Z,2.30
2023-02-18T23:10:38.174Z,2.13
2023-02-18T23:15:41.781Z,2.00
2023-02-18T23:20:47.096Z,2.35
2023-02-18T23:25:50.736Z,2.38
2023-02-18T23:30:55.092Z,2.28
2023-02-18T23:36:10.016Z,2.10
2023-02-18T23:41:13.655Z,2.22
2023-02-18T23:46:19.002Z,2.10
2023-02-18T23:51:24.502Z,2.00
2023-02-18T23:56:29.260Z,1.80
